createdAt,value
2022-12-18T00:02:32.558Z,99979.89
2022-12-18T00:12:40.206Z,99996.84
2022-12-18T00:22:47.144Z,100008.92
2022-12-18T00:32:54.338Z,100013.85
2022-12-18T00:43:01.601Z,100017.36
2022-12-18T00:53:08.942Z,100029.27
2022-12-18T01:03:15.022Z,100048.21
2022-12-18T01:13:22.845Z,100062.81
2022-12-18T01:23:30.185Z,100075.19
2022-12-18T01:33:37.553Z,100088.46
2022-12-18T01:43:45.755Z,100098.67
2022-12-18T01:53:53.442Z,100101.05
2022-12-18T02:04:20.413Z,100106.84
2022-12-18T02:14:40.231Z,100117.51
2022-12-18T02:24:56.326Z,100129.70
2022-12-18T02:35:07.028Z,100142.51
2022-12-18T02:45:15.160Z,100158.36
2022-12-18T02:55:22.722Z,100165.26
2022-12-18T03:05:32.567Z,100171.48
2022-12-18T03:15:40.633Z,100177.39
2022-12-18T03:25:49.213Z,100194.99
2022-12-18T03:35:57.461Z,100202.63
2022-12-18T03:46:08.807Z,100210.22
2022-12-18T03:56:18.750Z,100219.64
2022-12-18T04:06:27.148Z,100232.15
2022-12-18T04:16:34.206Z,100240.30
2022-12-18T04:26:41.422Z,100250.79
2022-12-18T04:36:47.893Z,100257.00
2022-12-18T04:46:55.161Z,100272.96
2022-12-18T04:57:03.164Z,100281.73
2022-12-18T05:07:10.398Z,100286.33
2022-12-18T05:17:17.932Z,100289.94
2022-12-18T05:27:25.134Z,100302.98
2022-12-18T05:37:32.237Z,100315.69
2022-12-18T05:47:39.560Z,100326.70
2022-12-18T05:57:45.646Z,100338.38
2022-12-18T06:07:53.506Z,100349.09
2022-12-18T06:18:02.475Z,100365.69
2022-12-18T06:28:08.263Z,100379.67
2022-12-18T06:38:15.290Z,100387.59
2022-12-18T06:48:22.473Z,100409.81
2022-12-18T06:58:29.817Z,100432.90
2022-12-18T07:08:36.932Z,100448.60
2022-12-18T07:18:44.743Z,100459.73
2022-12-18T07:28:53.156Z,100470.90
2022-12-18T07:39:00.197Z,100485.20
2022-12-18T07:49:07.295Z,100496.39
2022-12-18T07:59:14.615Z,100493.20
2022-12-18T08:09:22.087Z,100501.67
2022-12-18T08:19:29.319Z,100504.45
2022-12-18T08:29:36.683Z,100502.06
2022-12-18T08:39:44.457Z,100509.88
2022-12-18T08:49:51.630Z,100531.15
2022-12-18T08:59:58.673Z,100536.76
2022-12-18T09:10:06.434Z,100554.89
2022-12-18T09:20:14.339Z,100561.52
2022-12-18T09:30:22.099Z,100561.44
2022-12-18T09:40:34.886Z,100571.41
2022-12-18T09:50:43.545Z,100565.48
2022-12-18T10:00:53.534Z,100565.52
2022-12-18T10:21:15.909Z,100556.86
2022-12-18T10:31:25.829Z,100548.59
2022-12-18T10:41:33.587Z,100555.66
2022-12-18T10:51:41.348Z,100543.02
2022-12-18T11:01:52.448Z,100522.21
2022-12-18T11:12:00.393Z,100525.42
2022-12-18T11:22:20.466Z,100535.58
2022-12-18T11:32:28.721Z,100539.48
2022-12-18T11:42:35.083Z,100540.02
2022-12-18T11:52:43.984Z,100532.15
2022-12-18T12:03:00.409Z,100533.94
2022-12-18T12:13:10.563Z,100555.84
2022-12-18T12:23:26.071Z,100562.16
2022-12-18T12:33:36.382Z,100562.85
2022-12-18T12:54:16.058Z,100568.92
2022-12-18T13:04:21.890Z,100577.64
2022-12-18T13:14:28.582Z,100585.52
2022-12-18T13:24:36.189Z,100590.61
2022-12-18T13:34:43.792Z,100593.71
2022-12-18T13:44:51.663Z,100595.15
2022-12-18T13:55:01.987Z,100605.67
2022-12-18T14:05:24.808Z,100612.73
2022-12-18T14:15:29.155Z,100606.65
2022-12-18T14:25:36.346Z,100602.61
2022-12-18T14:35:45.504Z,100606.30
2022-12-18T14:45:53.347Z,100600.21
2022-12-18T14:55:59.566Z,100617.77
2022-12-18T15:06:18.527Z,100628.30
2022-12-18T15:16:24.018Z,100632.69
2022-12-18T15:26:41.126Z,100652.81
2022-12-18T15:36:48.606Z,100657.75
2022-12-18T15:46:56.141Z,100673.52
2022-12-18T15:57:21.251Z,100676.13
2022-12-18T16:07:30.713Z,100668.02
2022-12-18T16:17:38.897Z,100680.86
2022-12-18T16:27:46.119Z,100683.16
2022-12-18T16:37:55.046Z,100690.30
2022-12-18T16:48:02.235Z,100681.79
2022-12-18T16:58:08.664Z,100674.79
2022-12-18T17:08:15.835Z,100662.02
2022-12-18T17:18:23.324Z,100638.67
2022-12-18T17:28:30.800Z,100624.89
2022-12-18T17:38:38.491Z,100630.65
2022-12-18T17:48:45.712Z,100647.10
2022-12-18T17:58:53.743Z,100659.52
2022-12-18T18:09:01.036Z,100670.42
2022-12-18T18:19:11.560Z,100668.31
2022-12-18T18:29:22.016Z,100659.50
2022-12-18T18:39:30.212Z,100672.35
2022-12-18T18:49:36.755Z,100684.72
2022-12-18T18:59:44.264Z,100698.04
2022-12-18T19:09:51.432Z,100716.89
2022-12-18T19:19:58.766Z,100714.27
2022-12-18T19:30:06.564Z,100716.52
2022-12-18T19:40:14.134Z,100715.77
2022-12-18T19:50:21.583Z,100716.63
2022-12-18T20:00:28.844Z,100713.04
2022-12-18T20:10:36.012Z,100701.11
2022-12-18T20:20:42.099Z,100706.10
2022-12-18T20:30:48.124Z,100689.38
2022-12-18T20:40:55.970Z,100678.87
2022-12-18T20:51:02.123Z,100666.38
2022-12-18T21:01:13.725Z,100658.19
2022-12-18T21:11:47.717Z,100664.34
2022-12-18T21:21:55.795Z,100668.35
2022-12-18T21:32:04.140Z,100673.71
2022-12-18T21:42:28.766Z,100669.59
2022-12-18T21:52:35.736Z,100658.98
2022-12-18T22:02:43.212Z,100641.73
2022-12-18T22:12:54.744Z,100641.89
2022-12-18T22:23:06.129Z,100630.30
2022-12-18T22:33:14.019Z,100621.68
2022-12-18T22:43:21.270Z,100619.05
2022-12-18T22:53:28.832Z,100623.94
2022-12-18T23:03:36.433Z,100630.08
2022-12-18T23:13:44.299Z,100626.27
2022-12-18T23:23:51.842Z,100624.71
2022-12-18T23:34:01.101Z,100619.85
2022-12-18T23:44:07.476Z,100617.75
2022-12-18T23:54:15.060Z,100609.08
